Time;durP1;ratioP1;P1;durP2;ratioP2;P2;SDS_P1;SDS_P2;PMS_P1;PMS_P2;Temp;Humidity;BMP_temperature;BMP_pressure;BME280_temperature;BME280_humidity;BME280_pressure;Samples;Min_cycle;Max_cycle;Signal;HPM_P1;HPM_P2
2022/04/01 00:00:25;;;;;;;3.37;2.42;;;;;;;2.66;38.71;99035.09;1759842;81;25602;-67
2022/04/01 00:02:53;;;;;;;2.92;1.87;;;;;;;2.67;38.88;99021.98;1741045;81;25968;-67
2022/04/01 00:05:20;;;;;;;5.15;2.10;;;;;;;2.64;38.82;99024.43;1759754;81;25973;-67
2022/04/01 00:07:46;;;;;;;4.65;2.40;;;;;;;2.63;38.91;99027.65;1759825;81;25402;-67
2022/04/01 00:10:13;;;;;;;5.33;2.40;;;;;;;2.62;38.96;99020.70;1759832;81;25599;-68
2022/04/01 00:12:42;;;;;;;3.25;2.40;;;;;;;2.61;39.11;99025.27;1759818;81;25616;-68
2022/04/01 00:15:12;;;;;;;5.05;2.37;;;;;;;2.59;39.13;99019.42;1759924;81;28018;-68
2022/04/01 00:17:40;;;;;;;3.98;2.20;;;;;;;2.57;39.24;99016.25;1759723;81;25690;-68
2022/04/01 00:20:09;;;;;;;4.28;2.05;;;;;;;2.56;39.30;99017.87;1759821;81;25605;-68
2022/04/01 00:22:36;;;;;;;3.05;2.10;;;;;;;2.54;39.32;99016.81;1760160;81;26160;-68
2022/04/01 00:25:04;;;;;;;3.50;2.20;;;;;;;2.54;39.45;99012.03;1760126;81;25612;-68
2022/04/01 00:27:30;;;;;;;4.10;2.05;;;;;;;2.56;39.51;99004.52;1760110;81;27574;-68
2022/04/01 00:29:56;;;;;;;2.95;2.35;;;;;;;2.52;39.56;99004.30;1759937;81;25596;-68
2022/04/01 00:32:22;;;;;;;5.10;2.30;;;;;;;2.54;39.60;99013.36;1760065;81;25544;-68
2022/04/01 00:34:51;;;;;;;4.37;2.27;;;;;;;2.55;39.65;99000.25;1759990;81;27774;-68
2022/04/01 00:37:18;;;;;;;3.47;2.40;;;;;;;2.56;39.76;98993.30;1760352;81;25639;-68
2022/04/01 00:39:45;;;;;;;2.47;1.95;;;;;;;2.54;39.67;99002.13;1760036;81;27692;-67
2022/04/01 00:42:12;;;;;;;2.65;2.17;;;;;;;2.54;39.70;98999.47;1759979;81;25601;-67
2022/04/01 00:44:41;;;;;;;2.45;2.08;;;;;;;2.51;39.69;98996.03;1760030;81;25411;-67
2022/04/01 00:47:14;;;;;;;4.30;2.30;;;;;;;2.50;39.64;98993.09;1760231;81;25636;-67
2022/04/01 00:49:44;;;;;;;4.72;2.50;;;;;;;2.48;39.64;98995.27;1760091;81;25584;-66
2022/04/01 00:52:14;;;;;;;4.40;2.02;;;;;;;2.48;39.73;99000.60;1760170;81;28148;-68
2022/04/01 00:54:41;;;;;;;4.15;1.98;;;;;;;2.49;39.73;98993.41;1759919;81;25974;-68
2022/04/01 00:57:10;;;;;;;3.90;2.30;;;;;;;2.48;39.77;98993.14;1763935;80;25576;-68
2022/04/01 00:59:37;;;;;;;2.47;2.20;;;;;;;2.47;39.71;98989.69;1765772;80;25485;-68
2022/04/01 01:02:05;;;;;;;3.85;2.25;;;;;;;2.47;39.71;98988.35;1765712;81;25380;-68
2022/04/01 01:04:32;;;;;;;4.15;2.10;;;;;;;2.45;39.70;98990.48;1765690;81;27529;-68
2022/04/01 01:07:00;;;;;;;3.08;2.22;;;;;;;2.42;39.60;98993.20;1765631;80;27332;-68
2022/04/01 01:09:27;;;;;;;8.10;2.27;;;;;;;2.41;39.68;98990.27;1765906;81;25628;-68
2022/04/01 01:11:55;;;;;;;4.75;2.30;;;;;;;2.40;39.79;98989.22;1765655;80;25472;-67
2022/04/01 01:14:30;;;;;;;4.55;2.25;;;;;;;2.39;39.74;98984.98;1765725;80;25618;-67
2022/04/01 01:16:58;;;;;;;4.47;2.42;;;;;;;2.39;39.79;98984.44;1765465;80;27493;-68
2022/04/01 01:19:27;;;;;;;7.63;2.23;;;;;;;2.40;39.76;98985.22;1765831;81;25464;-67
2022/04/01 01:21:56;;;;;;;5.12;2.42;;;;;;;2.39;39.79;98978.31;1765660;80;25540;-67
2022/04/01 01:24:39;;;;;;;2.50;2.30;;;;;;;2.38;39.83;98972.19;1765756;81;27639;-67
2022/04/01 01:27:06;;;;;;;3.80;2.30;;;;;;;2.36;39.76;98985.00;1765048;80;25481;-67
2022/04/01 01:29:37;;;;;;;3.00;2.42;;;;;;;2.34;39.79;98973.04;1765772;81;28110;-68
2022/04/01 01:32:07;;;;;;;3.80;2.30;;;;;;;2.24;39.87;98960.61;1765633;80;25650;-67
2022/04/01 01:34:33;;;;;;;3.55;2.30;;;;;;;2.29;39.97;98961.09;1765822;81;25420;-67
2022/04/01 01:37:02;;;;;;;2.85;2.35;;;;;;;2.29;40.02;98967.77;1765660;80;26038;-67
2022/04/01 01:39:30;;;;;;;2.65;1.82;;;;;;;2.30;40.11;98964.00;1765912;81;25382;-67
2022/04/01 01:41:57;;;;;;;3.27;2.15;;;;;;;2.31;40.12;98965.05;1765674;81;28017;-67
2022/04/01 01:44:24;;;;;;;3.83;2.42;;;;;;;2.31;40.13;98965.59;1765613;80;25537;-67
2022/04/01 01:46:53;;;;;;;3.27;2.17;;;;;;;2.28;40.16;98960.28;1765677;80;25418;-68
2022/04/01 01:49:20;;;;;;;3.37;2.10;;;;;;;2.27;40.22;98956.05;1765613;81;25549;-66
2022/04/01 01:54:45;;;;;;;3.15;2.17;;;;;;;2.23;40.44;98967.02;1765641;81;27483;-67
2022/04/01 01:57:16;;;;;;;3.75;2.37;;;;;;;2.21;40.60;98945.17;1762134;80;25524;-67
2022/04/01 01:59:44;;;;;;;3.58;2.25;;;;;;;2.17;40.63;98955.63;1760012;81;25399;-67
2022/04/01 02:02:11;;;;;;;4.90;2.12;;;;;;;2.15;41.34;98963.13;1759957;81;25569;-67
2022/04/01 02:04:40;;;;;;;2.65;2.20;;;;;;;2.11;41.69;98949.30;1759992;80;25619;-67
2022/04/01 02:07:09;;;;;;;4.10;2.25;;;;;;;2.06;41.63;98948.84;1759969;81;28419;-67
2022/04/01 02:09:37;;;;;;;;;;;;;;;2.02;41.72;98948.59;1762486;81;25761;-67
2022/04/01 02:12:05;;;;;;;6.25;1.95;;;;;;;2.01;41.88;98943.02;1759921;81;25614;-67
2022/04/01 02:14:33;;;;;;;3.37;2.23;;;;;;;1.99;42.09;98946.52;1760125;81;26001;-67
2022/04/01 02:16:59;;;;;;;7.92;2.05;;;;;;;1.97;42.06;98946.53;1759967;81;25381;-67
2022/04/01 02:19:26;;;;;;;5.78;2.35;;;;;;;1.94;42.58;98949.24;1759921;81;27519;-67
2022/04/01 02:21:54;;;;;;;4.00;2.05;;;;;;;1.89;42.93;98937.81;1759849;81;25772;-67
2022/04/01 02:24:23;;;;;;;3.12;2.25;;;;;;;1.86;42.84;98938.65;1760051;81;25452;-68
2022/04/01 02:26:50;;;;;;;;;;;;;;;1.83;43.05;98933.09;1762525;81;25648;-68
2022/04/01 02:29:19;;;;;;;3.12;2.22;;;;;;;1.80;43.25;98931.77;1760003;81;25395;-68
2022/04/01 02:31:49;;;;;;;2.67;2.30;;;;;;;1.78;43.40;98924.60;1760200;81;27571;-68
2022/04/01 02:34:16;;;;;;;3.37;2.27;;;;;;;1.78;43.46;98927.27;1759854;81;25459;-68
2022/04/01 02:36:43;;;;;;;6.75;2.30;;;;;;;1.81;43.45;98919.26;1760018;81;25528;-68
2022/04/01 02:39:10;;;;;;;3.33;2.55;;;;;;;1.78;43.88;98922.48;1759896;81;25552;-68
2022/04/01 02:41:37;;;;;;;7.72;2.27;;;;;;;1.75;44.20;98919.05;1759956;81;25571;-68
2022/04/01 02:44:13;;;;;;;3.37;2.45;;;;;;;1.72;44.20;98918.28;1759949;81;27169;-68
2022/04/01 02:46:45;;;;;;;6.15;2.33;;;;;;;1.70;44.38;98917.77;1759850;80;25468;-68
2022/04/01 02:49:16;;;;;;;4.12;2.27;;;;;;;1.66;44.70;98921.55;1760045;81;25584;-68
2022/04/01 02:51:45;;;;;;;2.33;2.05;;;;;;;1.60;45.10;98915.48;1759484;81;25672;-68
2022/04/01 02:54:13;;;;;;;4.72;2.30;;;;;;;1.56;44.85;98915.78;1760198;81;25376;-68
2022/04/01 02:56:41;;;;;;;3.47;2.27;;;;;;;1.56;44.98;98909.66;1759911;80;27552;-67
2022/04/01 02:59:09;;;;;;;3.72;2.20;;;;;;;1.51;45.25;98917.70;1759850;81;25639;-67
2022/04/01 03:01:39;;;;;;;4.12;2.42;;;;;;;1.47;45.91;98900.95;1759925;81;25457;-67
2022/04/01 03:04:10;;;;;;;5.37;2.27;;;;;;;1.43;45.89;98895.94;1759884;81;25686;-67
2022/04/01 03:06:43;;;;;;;3.08;2.27;;;;;;;1.41;45.65;98894.07;1759923;81;25537;-67
2022/04/01 03:09:12;;;;;;;5.17;2.30;;;;;;;1.41;45.80;98899.95;1759945;81;29602;-67
2022/04/01 03:11:40;;;;;;;2.92;2.22;;;;;;;1.41;45.73;98904.73;1760041;81;26030;-67
2022/04/01 03:14:10;;;;;;;5.67;2.77;;;;;;;1.41;45.79;98904.73;1759933;81;25650;-67
2022/04/01 03:16:39;;;;;;;5.17;2.77;;;;;;;1.41;45.90;98897.28;1759862;81;26229;-67
2022/04/01 03:19:10;;;;;;;4.05;2.70;;;;;;;1.42;46.10;98898.33;1760172;81;25607;-67
2022/04/01 03:21:40;;;;;;;3.12;2.20;;;;;;;1.41;46.50;98904.73;1759893;81;27546;-67
2022/04/01 03:24:11;;;;;;;2.77;2.10;;;;;;;1.36;46.54;98892.79;1759832;81;25584;-67
2022/04/01 03:26:39;;;;;;;3.55;2.60;;;;;;;1.34;46.70;98897.61;1759917;80;25540;-67
2022/04/01 03:29:07;;;;;;;3.87;2.37;;;;;;;1.33;46.70;98890.71;1759955;81;26093;-67
2022/04/01 03:31:34;;;;;;;4.58;2.60;;;;;;;1.30;46.96;98892.60;1759949;81;25552;-67
2022/04/01 03:34:01;;;;;;;2.67;2.12;;;;;;;1.28;47.24;98897.42;1759906;81;27485;-66
2022/04/01 03:36:27;;;;;;;7.00;2.95;;;;;;;1.24;47.35;98887.87;1759773;81;25764;-66
2022/04/01 03:38:54;;;;;;;5.30;2.30;;;;;;;1.21;47.68;98892.94;1760012;81;25452;-66
2022/04/01 03:41:22;;;;;;;4.80;2.50;;;;;;;1.16;47.50;98896.98;1759880;81;25573;-66
2022/04/01 03:43:54;;;;;;;3.15;2.10;;;;;;;1.14;47.46;98881.83;1759933;81;25445;-66
2022/04/01 03:46:24;;;;;;;7.08;2.70;;;;;;;1.11;47.62;98889.31;1759878;81;27490;-66
2022/04/01 03:49:03;;;;;;;4.25;2.70;;;;;;;1.09;47.58;98880.81;1759893;81;26029;-68
2022/04/01 03:51:31;;;;;;;2.67;1.95;;;;;;;1.09;47.63;98883.47;1758519;81;25734;-66
2022/04/01 03:54:02;;;;;;;3.95;2.47;;;;;;;1.09;47.63;98888.80;1759904;81;25548;-66
2022/04/01 03:56:35;;;;;;;3.50;2.27;;;;;;;1.07;47.64;98880.82;1759943;80;25437;-68
2022/04/01 03:59:06;;;;;;;3.33;2.20;;;;;;;1.06;47.73;98890.69;1765610;80;27476;-67
2022/04/01 04:01:34;;;;;;;6.83;2.52;;;;;;;1.05;48.60;98877.10;1765659;80;25613;-68
2022/04/01 04:04:01;;;;;;;7.55;2.58;;;;;;;1.04;47.99;98878.20;1765769;80;25638;-68
2022/04/01 04:06:28;;;;;;;4.62;2.95;;;;;;;1.02;48.93;98883.02;1765683;81;26015;-68
2022/04/01 04:08:57;;;;;;;3.50;2.40;;;;;;;0.99;48.19;98879.57;1765772;81;25385;-68
2022/04/01 04:11:26;;;;;;;3.95;2.40;;;;;;;1.00;48.04;98886.47;1765886;81;27190;-68
2022/04/01 04:13:55;;;;;;;3.92;2.30;;;;;;;0.99;48.35;98888.89;1750885;81;25379;-68
2022/04/01 04:16:32;;;;;;;5.15;2.25;;;;;;;0.98;48.40;98891.28;1765847;80;25622;-68
2022/04/01 04:19:12;;;;;;;3.80;2.17;;;;;;;0.97;48.50;98893.70;1765670;80;25657;-68
2022/04/01 04:22:14;;;;;;;3.00;2.10;;;;;;;0.92;48.80;98886.55;1765549;80;25609;-68
2022/04/01 04:24:54;;;;;;;3.47;2.35;;;;;;;0.91;49.03;98902.80;1765720;81;27498;-68
2022/04/01 04:27:28;;;;;;;8.40;2.35;;;;;;;0.89;49.17;98896.97;1765817;81;25793;-67
2022/04/01 04:30:07;;;;;;;4.10;2.50;;;;;;;0.86;49.61;98900.18;1765773;80;25547;-67
2022/04/01 04:32:56;;;;;;;3.52;2.60;;;;;;;0.83;49.70;98895.41;1765832;80;25648;-67
2022/04/01 04:35:24;;;;;;;6.33;2.83;;;;;;;0.82;49.59;98900.45;1765863;80;30691;-67
2022/04/01 04:37:55;;;;;;;4.85;2.45;;;;;;;0.79;49.62;98891.17;1765598;80;27487;-67
2022/04/01 04:40:21;;;;;;;2.98;2.40;;;;;;;0.79;49.94;98895.72;1765744;81;25390;-68
2022/04/01 04:42:49;;;;;;;2.95;2.22;;;;;;;0.78;50.26;98902.09;1765689;80;25596;-68
2022/04/01 04:45:22;;;;;;;7.87;2.45;;;;;;;0.78;50.36;98882.14;1765669;81;25620;-68
2022/04/01 04:47:49;;;;;;;4.25;2.55;;;;;;;0.78;50.55;98895.45;1765725;81;25550;-68
2022/04/01 04:50:19;;;;;;;7.05;2.40;;;;;;;0.74;51.00;98893.88;1765689;80;28106;-68
2022/04/01 04:52:48;;;;;;;;;;;;;;;0.69;50.75;98873.95;1768275;81;25406;-68
2022/04/01 04:55:22;;;;;;;5.72;2.83;;;;;;;0.66;51.08;98887.27;1765762;81;25525;-68
2022/04/01 04:57:48;;;;;;;10.45;2.75;;;;;;;0.62;51.42;98884.91;1762390;80;25458;-67
2022/04/01 05:00:21;;;;;;;5.08;2.80;;;;;;;0.60;51.79;98889.73;1760190;81;25599;-67
2022/04/01 05:03:25;;;;;;;5.42;2.70;;;;;;;0.58;52.06;98897.20;1760004;81;27478;-67
2022/04/01 05:05:56;;;;;;;4.78;2.83;;;;;;;0.56;52.38;98899.31;1759881;81;25371;-66
2022/04/01 05:08:48;;;;;;;3.87;2.67;;;;;;;0.58;52.82;98884.41;1760076;81;25577;-69
2022/04/01 05:11:47;;;;;;;5.92;2.90;;;;;;;0.55;53.26;98904.39;1759827;81;25696;-66
2022/04/01 05:14:58;;;;;;;5.30;2.92;;;;;;;0.50;53.33;98910.53;1759767;81;31387;-67
2022/04/01 05:17:45;;;;;;;4.00;2.72;;;;;;;0.49;54.06;98904.16;1759545;81;27829;-67
2022/04/01 05:20:18;;;;;;;4.58;3.08;;;;;;;0.45;54.26;98915.89;1758623;81;27345;-67
2022/04/01 05:23:07;;;;;;;6.12;3.50;;;;;;;0.45;54.57;98907.12;1760081;81;25560;-68
2022/04/01 05:25:41;;;;;;;8.50;3.08;;;;;;;0.42;54.90;98921.75;1760076;81;27624;-67
2022/04/01 05:28:25;;;;;;;4.45;2.83;;;;;;;0.37;55.48;98907.16;1759909;81;25702;-67
2022/04/01 05:31:33;;;;;;;8.35;2.92;;;;;;;0.34;55.94;98910.36;1766240;78;28139;-68
2022/04/01 05:34:11;;;;;;;7.12;3.22;;;;;;;0.31;56.45;98897.63;1788883;78;25751;-67
2022/04/01 05:36:38;;;;;;;4.92;3.20;;;;;;;0.25;56.25;98905.37;1792403;78;25682;-67
2022/04/01 05:39:04;;;;;;;6.10;2.90;;;;;;;0.21;57.03;98914.44;1801872;78;25695;-67
2022/04/01 05:41:33;;;;;;;4.85;3.00;;;;;;;0.18;57.38;98913.64;1734718;81;25718;-67
2022/04/01 05:44:01;;;;;;;6.60;3.35;;;;;;;0.14;57.56;98908.08;1721552;83;27479;-67
2022/04/01 05:46:27;;;;;;;7.85;3.30;;;;;;;0.15;58.09;98912.86;1739732;82;25560;-68
2022/04/01 05:48:54;;;;;;;9.38;3.67;;;;;;;0.12;58.39;98898.26;1739657;82;25402;-67
2022/04/01 05:51:20;;;;;;;13.20;5.15;;;;;;;0.08;58.24;98901.73;1739650;82;26326;-67
2022/04/01 05:53:50;;;;;;;10.18;5.85;;;;;;;0.06;59.12;98903.87;1739784;82;25629;-68
2022/04/01 05:56:16;;;;;;;5.53;3.47;;;;;;;0.06;59.13;98903.87;1739803;82;27469;-68
2022/04/01 05:58:43;;;;;;;6.85;3.50;;;;;;;0.07;59.44;98897.47;1752534;81;25701;-68
2022/04/01 06:01:36;;;;;;;6.58;2.92;;;;;;;0.06;59.51;98898.02;1728317;81;25485;-68
2022/04/01 06:04:28;;;;;;;4.53;2.90;;;;;;;0.07;59.53;98906.77;1678937;85;25696;-67
2022/04/01 06:07:09;;;;;;;5.60;3.05;;;;;;;0.10;59.68;98918.20;1679065;85;25598;-67
2022/04/01 06:09:43;;;;;;;5.28;3.50;;;;;;;0.13;60.05;98908.35;1676140;85;27515;-68
2022/04/01 06:12:23;;;;;;;4.80;2.90;;;;;;;0.12;60.32;98905.42;1678249;85;25796;-68
2022/04/01 06:15:04;;;;;;;4.15;2.98;;;;;;;0.12;60.35;98906.23;1634710;87;25672;-68
2022/04/01 06:17:44;;;;;;;5.97;3.10;;;;;;;0.08;60.71;98891.88;1635226;86;25883;-68
2022/04/01 06:20:14;;;;;;;4.03;3.25;;;;;;;0.08;60.64;98901.19;1609594;89;25720;-68
2022/04/01 06:22:45;;;;;;;5.33;2.85;;;;;;;0.08;60.56;98905.72;1587484;89;28123;-68
2022/04/01 06:25:13;;;;;;;3.55;2.95;;;;;;;0.10;60.55;98905.72;1608751;87;27322;-70
2022/04/01 06:27:48;;;;;;;4.78;3.05;;;;;;;0.14;60.32;98909.41;1588690;89;25543;-70
2022/04/01 06:30:21;;;;;;;7.50;3.15;;;;;;;0.21;60.76;98899.80;1609595;89;25540;-70
2022/04/01 06:33:02;;;;;;;6.30;3.12;;;;;;;0.29;60.69;98900.56;1610101;89;25524;-71
2022/04/01 06:35:52;;;;;;;3.67;2.90;;;;;;;0.36;60.18;98897.60;1609770;89;27580;-70
2022/04/01 06:38:39;;;;;;;;;;;;;;;0.38;59.89;98903.98;1612174;87;25610;-69
2022/04/01 06:41:17;;;;;;;6.60;3.10;;;;;;;0.42;59.75;98902.34;1631766;87;25674;-70
2022/04/01 06:43:43;;;;;;;6.00;3.25;;;;;;;0.44;59.85;98894.88;1640818;87;25591;-70
2022/04/01 06:46:10;;;;;;;11.65;3.20;;;;;;;0.46;59.81;98894.88;1641231;87;25528;-70
2022/04/01 06:48:38;;;;;;;4.62;3.62;;;;;;;0.50;59.71;98907.88;1641032;87;27507;-69
2022/04/01 06:51:08;;;;;;;4.03;2.98;;;;;;;0.59;59.83;98914.73;1648524;84;25676;-70
2022/04/01 06:53:39;;;;;;;5.45;2.85;;;;;;;0.63;59.61;98905.66;1694060;84;25672;-71
2022/04/01 06:56:09;;;;;;;3.80;3.00;;;;;;;0.62;59.44;98912.86;1667361;83;25761;-70
2022/04/01 06:58:36;;;;;;;7.25;3.05;;;;;;;0.63;59.63;98896.34;1707712;82;25485;-70
2022/04/01 07:01:04;;;;;;;3.83;3.00;;;;;;;0.62;59.68;98908.86;1707899;84;27519;-69
2022/04/01 07:03:30;;;;;;;4.42;2.50;;;;;;;0.62;60.19;98902.75;1707785;84;25740;-70
2022/04/01 07:05:58;;;;;;;6.28;3.40;;;;;;;0.60;60.35;98901.70;1707762;84;25418;-69
2022/04/01 07:08:25;;;;;;;6.12;2.95;;;;;;;0.59;60.71;98907.30;1707862;84;25714;-69
2022/04/01 07:10:51;;;;;;;5.53;3.15;;;;;;;0.56;60.63;98901.98;1707861;84;25536;-69
2022/04/01 07:13:19;;;;;;;4.70;3.02;;;;;;;0.57;60.64;98905.45;1707894;84;27474;-69
2022/04/01 07:15:47;;;;;;;6.20;3.27;;;;;;;0.55;60.91;98909.72;1707767;84;25746;-70
2022/04/01 07:18:13;;;;;;;7.45;3.60;;;;;;;0.54;60.84;98921.42;1709031;81;25588;-69
2022/04/01 07:20:41;;;;;;;4.40;3.35;;;;;;;0.54;61.12;98906.78;1750678;82;26109;-70
2022/04/01 07:23:07;;;;;;;5.12;3.37;;;;;;;0.60;61.39;98905.69;1723747;82;25431;-71
2022/04/01 07:25:34;;;;;;;7.97;3.98;;;;;;;0.64;61.18;98913.91;1750888;82;27534;-70
2022/04/01 07:28:01;;;;;;;9.48;4.12;;;;;;;0.64;61.28;98907.27;1750739;82;25422;-69
2022/04/01 07:30:29;;;;;;;6.75;3.75;;;;;;;0.69;61.57;98903.23;1723007;82;25713;-70
2022/04/01 07:32:59;;;;;;;7.92;4.30;;;;;;;0.73;61.92;98900.27;1728211;82;25561;-69
2022/04/01 07:35:27;;;;;;;6.87;4.20;;;;;;;0.78;61.73;98907.42;1728132;83;25452;-70
2022/04/01 07:37:53;;;;;;;4.85;3.22;;;;;;;0.78;62.16;98909.54;1728239;83;27539;-69
2022/04/01 07:40:22;;;;;;;6.30;3.75;;;;;;;0.75;61.95;98899.47;1701495;83;25718;-69
2022/04/01 07:42:50;;;;;;;7.25;3.77;;;;;;;0.71;62.13;98914.39;1727442;83;25633;-69
2022/04/01 07:45:18;;;;;;;8.95;4.03;;;;;;;0.67;62.21;98908.83;1728215;83;25494;-70
2022/04/01 07:47:46;;;;;;;5.33;4.05;;;;;;;0.67;62.67;98914.16;1728223;82;25392;-69
2022/04/01 07:50:15;;;;;;;6.47;3.55;;;;;;;0.70;62.56;98907.50;1728222;82;27443;-70
2022/04/01 07:52:43;;;;;;;5.75;3.75;;;;;;;0.76;63.04;98900.26;1728443;83;25384;-71
2022/04/01 07:55:13;;;;;;;8.45;4.53;;;;;;;0.81;63.12;98907.66;1701676;83;25430;-69
2022/04/01 07:57:40;;;;;;;12.10;4.10;;;;;;;0.83;63.20;98907.38;1728285;83;25588;-69
2022/04/01 08:00:10;;;;;;;12.95;4.12;;;;;;;0.85;63.66;98909.23;1722084;83;25627;-70
2022/04/01 08:02:37;;;;;;;6.35;4.22;;;;;;;0.85;63.29;98911.89;1723604;83;27460;-70
2022/04/01 08:05:04;;;;;;;9.00;4.20;;;;;;;0.88;63.78;98903.35;1722042;83;25556;-70
2022/04/01 08:07:32;;;;;;;7.33;4.70;;;;;;;0.88;63.78;98911.34;1723651;83;25545;-70
2022/04/01 08:09:58;;;;;;;12.85;4.72;;;;;;;0.89;64.11;98911.06;1722031;83;25702;-70
2022/04/01 08:12:24;;;;;;;9.85;4.40;;;;;;;0.94;64.20;98907.58;1723558;83;25543;-70
2022/04/01 08:14:51;;;;;;;7.97;4.20;;;;;;;0.99;64.21;98918.18;1722010;83;27008;-70
2022/04/01 08:17:17;;;;;;;12.10;3.98;;;;;;;1.01;64.45;98912.03;1723482;83;25700;-70
2022/04/01 08:19:44;;;;;;;6.53;3.92;;;;;;;1.03;64.35;98910.42;1722084;83;25476;-70
2022/04/01 08:22:11;;;;;;;8.83;4.95;;;;;;;1.01;64.21;98920.56;1723668;83;25545;-70
2022/04/01 08:24:38;;;;;;;6.95;3.87;;;;;;;0.98;64.31;98913.92;1722171;83;25636;-70
2022/04/01 08:27:04;;;;;;;9.53;4.85;;;;;;;0.95;64.25;98909.14;1723567;83;27462;-70
2022/04/01 08:29:30;;;;;;;10.75;4.85;;;;;;;0.91;64.79;98912.12;1722036;83;25454;-70
2022/04/01 08:31:57;;;;;;;15.88;4.90;;;;;;;0.91;65.29;98908.12;1723663;83;25598;-70
2022/04/01 08:34:24;;;;;;;7.53;4.25;;;;;;;0.90;64.99;98910.52;1722016;83;25487;-69
2022/04/01 08:36:51;;;;;;;9.65;4.35;;;;;;;0.91;64.95;98903.59;1723479;83;25618;-70
2022/04/01 08:39:17;;;;;;;5.87;4.10;;;;;;;0.86;64.82;98905.50;1721993;83;27615;-70
2022/04/01 08:41:43;;;;;;;8.33;4.30;;;;;;;0.82;64.92;98907.93;1723487;83;25606;-71
2022/04/01 08:44:10;;;;;;;12.20;4.80;;;;;;;0.78;65.35;98910.87;1721999;83;25678;-70
2022/04/01 08:46:36;;;;;;;10.70;4.80;;;;;;;0.76;65.18;98916.23;1723539;83;26003;-70
2022/04/01 08:49:03;;;;;;;9.65;4.83;;;;;;;0.76;65.82;98902.92;1722074;83;25388;-70
2022/04/01 08:51:29;;;;;;;12.70;5.15;;;;;;;0.73;65.44;98918.37;1723559;83;28059;-69
2022/04/01 08:53:56;;;;;;;9.90;5.08;;;;;;;0.71;65.40;98921.05;1722012;83;25698;-71
2022/04/01 08:56:22;;;;;;;9.05;5.37;;;;;;;0.67;65.55;98916.81;1723691;83;25585;-69
2022/04/01 08:58:51;;;;;;;9.75;5.00;;;;;;;0.68;66.40;98909.10;1720098;82;26207;-70
2022/04/01 09:01:17;;;;;;;14.18;5.25;;;;;;;0.65;67.16;98912.86;1720566;83;25521;-70
2022/04/01 09:03:44;;;;;;;9.13;5.55;;;;;;;0.60;66.35;98915.01;1720180;83;28085;-70
2022/04/01 09:06:11;;;;;;;21.82;6.37;;;;;;;0.58;66.58;98921.15;1720546;83;25761;-71
2022/04/01 09:08:43;;;;;;;9.58;4.50;;;;;;;0.57;66.57;98913.44;1720957;83;25392;-70
2022/04/01 09:11:15;;;;;;;9.20;4.78;;;;;;;0.58;67.02;98913.16;1720843;83;25570;-70
2022/04/01 09:13:47;;;;;;;6.90;4.22;;;;;;;0.57;67.14;98917.42;1720262;83;25404;-70
2022/04/01 09:16:30;;;;;;;8.58;5.00;;;;;;;0.58;67.06;98916.34;1720145;83;27432;-70
2022/04/01 09:19:03;;;;;;;11.25;5.03;;;;;;;0.58;67.49;98917.16;1719985;83;25289;-70
2022/04/01 09:21:39;;;;;;;10.55;4.72;;;;;;;0.64;67.55;98916.03;1720141;83;25738;-71
2022/04/01 09:24:07;;;;;;;10.08;5.50;;;;;;;0.62;67.29;98918.72;1694129;83;25547;-71
2022/04/01 09:26:38;;;;;;;7.85;5.72;;;;;;;0.60;67.43;98926.20;1720195;83;25701;-70
2022/04/01 09:29:08;;;;;;;12.28;6.15;;;;;;;0.57;67.79;98917.42;1719336;83;27558;-71
2022/04/01 09:31:41;;;;;;;;;;;;;;;0.59;67.95;98919.27;1722776;83;25673;-71
2022/04/01 09:34:13;;;;;;;10.40;5.37;;;;;;;0.61;68.35;98919.23;1720914;83;25686;-71
2022/04/01 09:36:43;;;;;;;10.43;5.03;;;;;;;0.61;68.26;98920.57;1721474;83;25472;-71
2022/04/01 09:39:18;;;;;;;8.38;5.47;;;;;;;0.63;68.56;98920.30;1721791;83;25312;-71
2022/04/01 09:41:52;;;;;;;8.10;4.70;;;;;;;0.67;68.68;98910.70;1720413;83;26214;-70
2022/04/01 09:44:22;;;;;;;12.23;6.10;;;;;;;0.68;68.64;98916.27;1693430;83;25769;-71
2022/04/01 09:46:56;;;;;;;12.03;5.30;;;;;;;0.68;68.67;98902.45;1720178;83;25535;-71
2022/04/01 09:49:44;;;;;;;7.58;4.83;;;;;;;0.70;68.61;98898.97;1719973;83;25678;-70
2022/04/01 09:52:18;;;;;;;12.58;6.17;;;;;;;0.75;69.14;98906.13;1720151;83;25580;-72
2022/04/01 09:54:51;;;;;;;13.38;5.10;;;;;;;0.78;69.00;98899.44;1720231;83;28033;-70
2022/04/01 09:57:21;;;;;;;9.43;4.72;;;;;;;0.80;69.01;98903.42;1720127;83;25626;-71
2022/04/01 09:59:50;;;;;;;9.15;5.05;;;;;;;0.84;68.95;98901.00;1719432;83;25570;-70
2022/04/01 10:02:17;;;;;;;10.65;5.40;;;;;;;0.89;69.38;98903.63;1718835;83;25550;-71
2022/04/01 10:04:43;;;;;;;8.15;5.00;;;;;;;0.91;69.48;98892.15;1696007;83;25768;-71
2022/04/01 10:07:11;;;;;;;8.75;4.40;;;;;;;0.95;69.39;98902.48;1696032;83;27557;-71
2022/04/01 10:09:39;;;;;;;8.68;4.58;;;;;;;0.96;69.22;98899.31;1718728;83;25713;-69
2022/04/01 10:12:09;;;;;;;9.48;5.15;;;;;;;0.97;69.64;98887.56;1718945;83;25472;-70
2022/04/01 10:14:40;;;;;;;15.03;5.45;;;;;;;0.95;69.27;98892.38;1718226;83;25752;-70
2022/04/01 10:17:10;;;;;;;11.08;4.97;;;;;;;1.01;69.92;98891.28;1718751;83;25650;-71
2022/04/01 10:19:39;;;;;;;13.93;5.67;;;;;;;1.00;69.87;98891.80;1718793;83;27925;-70
2022/04/01 10:22:06;;;;;;;;;;;;;;;1.07;70.28;98888.81;1699050;83;25754;-71
2022/04/01 10:24:56;;;;;;;10.63;5.15;;;;;;;1.07;70.23;98892.28;1718960;83;25533;-70
2022/04/01 10:27:39;;;;;;;11.22;5.97;;;;;;;1.11;70.28;98893.84;1718616;83;26109;-70
2022/04/01 10:30:09;;;;;;;20.70;6.17;;;;;;;1.16;70.46;98895.14;1718880;83;25400;-70
2022/04/01 10:32:40;;;;;;;11.80;5.65;;;;;;;1.22;70.70;98891.88;1718912;83;27511;-70
2022/04/01 10:35:11;;;;;;;10.82;4.37;;;;;;;1.23;70.55;98887.60;1718711;83;25594;-70
2022/04/01 10:37:37;;;;;;;7.83;4.67;;;;;;;1.24;70.44;98900.38;1717224;83;25740;-70
2022/04/01 10:40:17;;;;;;;10.72;5.15;;;;;;;1.28;70.54;98890.77;1718711;83;25507;-70
2022/04/01 10:42:46;;;;;;;9.58;5.42;;;;;;;1.27;70.28;98905.94;1718941;83;25746;-70
2022/04/01 10:45:21;;;;;;;11.93;5.05;;;;;;;1.27;70.58;98895.82;1718933;83;28002;-70
2022/04/01 10:53:45;;;;;;;11.22;5.45;;;;;;;1.29;70.48;98879.02;1699714;83;25473;-70
2022/04/01 10:56:26;;;;;;;7.95;5.05;;;;;;;1.27;70.98;98889.16;1719012;83;25722;-68
2022/04/01 10:59:17;;;;;;;9.45;4.80;;;;;;;1.24;70.78;98891.05;1719071;81;27532;-69
2022/04/01 11:02:00;;;;;;;8.23;4.97;;;;;;;1.17;71.08;98888.71;1718620;83;25662;-69
2022/04/01 11:04:35;;;;;;;10.40;5.35;;;;;;;1.15;71.14;98887.42;1720971;83;25704;-69
2022/04/01 11:07:24;;;;;;;8.10;5.35;;;;;;;1.12;71.12;98887.43;1721642;83;26091;-69
2022/04/01 11:09:56;;;;;;;11.95;5.20;;;;;;;1.09;71.32;98897.30;1721533;83;25304;-69
2022/04/01 11:12:42;;;;;;;12.03;5.55;;;;;;;1.06;71.37;98897.89;1722058;83;27997;-67
2022/04/01 11:15:15;;;;;;;13.10;5.35;;;;;;;1.01;71.46;98888.61;1720339;83;27375;-68
2022/04/01 11:17:49;;;;;;;11.10;6.05;;;;;;;0.96;71.49;98894.77;1721841;83;25226;-67
2022/04/01 11:20:29;;;;;;;11.40;6.25;;;;;;;0.95;71.68;98891.05;1721624;83;25543;-68
2022/04/01 11:22:59;;;;;;;9.23;5.58;;;;;;;0.94;71.86;98884.94;1719100;83;25589;-68
2022/04/01 11:25:32;;;;;;;10.45;5.80;;;;;;;0.94;72.03;98899.59;1720501;83;27602;-68
2022/04/01 11:28:05;;;;;;;16.10;5.60;;;;;;;0.96;72.68;98897.44;1720209;83;25479;-68
2022/04/01 11:30:40;;;;;;;10.78;6.25;;;;;;;0.93;72.25;98892.66;1720308;83;25676;-68
2022/04/01 11:33:14;;;;;;;9.68;5.10;;;;;;;0.91;72.37;98896.14;1720274;83;25617;-67
2022/04/01 11:35:48;;;;;;;10.03;5.45;;;;;;;0.90;72.45;98894.55;1720375;83;25502;-67
2022/04/01 11:38:21;;;;;;;9.35;6.78;;;;;;;0.92;72.66;98889.76;1715479;82;27490;-67
2022/04/01 11:40:51;;;;;;;14.85;7.80;;;;;;;0.94;72.88;98888.94;1700319;84;25637;-66
2022/04/01 11:43:20;;;;;;;9.60;5.72;;;;;;;0.95;72.58;98890.51;1700321;84;25648;-68
2022/04/01 11:45:54;;;;;;;13.03;6.28;;;;;;;0.94;72.68;98883.61;1700444;84;25509;-68
2022/04/01 11:48:38;;;;;;;11.45;5.90;;;;;;;0.97;72.75;98880.91;1751117;81;25732;-67
2022/04/01 11:51:14;;;;;;;9.35;6.15;;;;;;;0.99;72.89;98884.08;1751252;81;27519;-67
2022/04/01 11:53:47;;;;;;;11.15;5.85;;;;;;;1.02;73.03;98891.00;1751082;81;25276;-68
2022/04/01 11:56:15;;;;;;;11.25;5.95;;;;;;;1.05;73.13;98886.42;1750999;81;25634;-68
2022/04/01 11:58:52;;;;;;;9.65;6.50;;;;;;;1.10;73.03;98890.38;1751238;81;26232;-68
2022/04/01 12:01:21;;;;;;;9.60;5.78;;;;;;;1.16;73.21;98884.48;1754252;81;25633;-68
2022/04/01 12:03:48;;;;;;;11.60;5.80;;;;;;;1.27;73.61;98879.84;1754660;81;27508;-68
2022/04/01 12:09:05;;;;;;;12.40;6.40;;;;;;;1.26;72.63;98894.22;1754672;81;25632;-67
2022/04/01 12:11:45;;;;;;;9.38;4.65;;;;;;;1.27;72.79;98891.28;1754482;81;25684;-66